Cushing, OK

2:46 AM CDT on August 30, 2015 (GMT -0500)
Cushing Municipal | | Change Station
CLOSE
Current Station
Airport
Location: Cushing,
Elevation: 915 ft
Nearby Weather Stations

Elev 915 ft 35.95 °N, 96.77 °W | Updated 11 minutes ago

Mostly Cloudy
Mostly Cloudy
70 °F
Feels Like 70 °F
N
0
Wind Variable Wind from North
Gusts mph

Today
High -- | Low -- °F
--% Chance of Precip.
Yesterday
High -- | Low -- °F
Precip. -- in
6:57 AM 7:57 PM
Full, 100% visible
Pressure 29.98 in
Visibility -9999.0 miles
Clouds
Dew Point 70 °F
Humidity 100%
Rainfall 0.00 in
Snow Depth Not available.
UV Not available.
Pollen 8.20 out of 12
Air Quality Not available.
Flu Activity Not available.
METAR KCUH 300735Z AUTO 00000KT 21/21 A2998 RMK AO2 PWINO
Pressure 29.98 in
Visibility -9999.0 miles
Clouds
Dew Point 70 °F
Humidity 100%
Rainfall 0.00 in
Snow Depth Not available.
UV Not available.
Pollen 8.20 out of 12
Air Quality Not available.
Flu Activity Not available.
METAR KCUH 300735Z AUTO 00000KT 21/21 A2998 RMK AO2 PWINO

10-Day Weather Forecast

×

Almanac

Astronomy

Aug. 30, 2015 Rise Set
Actual Time
Civil Twilight
Nautical Twilight
Astronomical Twilight
Moon
Length of Visible Light
Length of Day
Tomorrow will be .
, % of the Moon is Illuminated

Today's Extremes

State Highs State Lows

Community

WunderPhotos

Upload Photos

1,850,904 photos uploaded!

WunderBlogs® & News

Nearby

Air Quality

  Air Quality AQ Index Pollutant
Not available.

Snow Depth

Station Depth Elevation

Earthquake Activity

City Distance Mag. Time & Date
Minimum magnitude displayed is 2.5.

Coastal Water Temperatures

Place Temperature

Stations

Nearby Weather Stations

Station Location Temp. Windchill Dew Point Humidity Wind Precip. Elev Updated Type